Clarkston, Washington
Current Conditions -  °F | °C
As of 7:56 PM on Monday 22 Dec 2014 (Local Time) from KLWS Reporting Station
Clear Clear  
Wind Chill: 38°   Ceiling: Unl
Heat Index: 41°   Visibility: 10mi
Dew Point: 29°   Wind: 5mph
Humidity: 62%   Direction: 160°SSE
Pressure: 30.35"   Gusts: NA
Location:  46.41°N, 117.04°W
Report Text: KLWS 230356Z 16004KT 10SM CLR 05/M02 A3035 RMK AO2 SLP285 T00501017
Loading
Personal Weather Stations






























Interactive Weather Map New forecast layout! Learn more

10-Day Weather Forecast

Advertisements
Track Severe Weather on mobile